Time;durP1;ratioP1;P1;durP2;ratioP2;P2;SDS_P1;SDS_P2;PMS_P1;PMS_P2;Temp;Humidity;BMP_temperature;BMP_pressure;BME280_temperature;BME280_humidity;BME280_pressure;Samples;Min_cycle;Max_cycle;Signal;HPM_P1;HPM_P2
2023/09/18 00:01:30;;;;;;;8.48;3.60;;;17.90;99.90;;;;;;5036202;28;20418;-59
2023/09/18 00:03:58;;;;;;;11.65;3.67;;;17.80;99.90;;;;;;5059299;28;20049;-57
2023/09/18 00:06:25;;;;;;;7.75;3.65;;;17.80;99.90;;;;;;5065261;28;20044;-58
2023/09/18 00:08:53;;;;;;;12.15;3.80;;;17.80;99.90;;;;;;5044503;28;20498;-59
2023/09/18 00:11:20;;;;;;;12.82;4.32;;;17.70;99.90;;;;;;5056478;28;20049;-60
2023/09/18 00:13:48;;;;;;;11.02;3.95;;;17.70;99.90;;;;;;5054764;28;20075;-58
2023/09/18 00:16:14;;;;;;;10.80;4.50;;;17.70;99.90;;;;;;5058491;28;20041;-60
2023/09/18 00:18:42;;;;;;;7.25;3.67;;;17.70;99.90;;;;;;5055828;28;20215;-61
2023/09/18 00:21:10;;;;;;;6.60;2.92;;;17.60;99.90;;;;;;5063655;28;20041;-60
2023/09/18 00:23:37;;;;;;;6.78;2.92;;;17.60;99.90;;;;;;5043758;28;20105;-58
2023/09/18 00:26:04;;;;;;;4.38;2.45;;;17.60;99.90;;;;;;5062928;28;20055;-58
2023/09/18 00:28:31;;;;;;;5.82;2.38;;;17.60;99.90;;;;;;5061617;28;20100;-59
2023/09/18 00:30:58;;;;;;;4.57;2.30;;;17.50;99.90;;;;;;5054327;28;20045;-59
2023/09/18 00:33:25;;;;;;;7.95;2.38;;;17.50;99.90;;;;;;5048964;28;20103;-54
2023/09/18 00:35:52;;;;;;;4.63;2.25;;;17.50;99.90;;;;;;5056689;28;20071;-57
2023/09/18 00:38:19;;;;;;;5.00;2.13;;;17.50;99.90;;;;;;5039175;28;20507;-57
2023/09/18 00:40:46;;;;;;;4.72;1.80;;;17.50;99.90;;;;;;5057789;28;20053;-57
2023/09/18 00:43:13;;;;;;;5.82;2.28;;;17.40;99.90;;;;;;5055121;28;20037;-56
2023/09/18 00:45:44;;;;;;;3.47;1.63;;;17.40;99.90;;;;;;5058039;28;20558;-57
2023/09/18 00:48:12;;;;;;;5.68;1.50;;;17.30;99.90;;;;;;5044522;28;20151;-59
2023/09/18 00:50:45;;;;;;;5.20;1.90;;;17.30;99.90;;;;;;4822752;28;10001257;-59
2023/09/18 00:53:20;;;;;;;7.80;2.38;;;17.30;99.90;;;;;;5040598;28;20263;-59
2023/09/18 00:55:47;;;;;;;8.77;1.60;;;17.20;99.90;;;;;;5033244;28;20127;-59
2023/09/18 00:58:14;;;;;;;3.58;1.27;;;17.20;99.90;;;;;;5033689;28;20053;-56
2023/09/18 01:00:41;;;;;;;5.22;1.75;;;17.10;99.90;;;;;;5047596;28;20090;-58
2023/09/18 01:03:07;;;;;;;4.65;1.17;;;17.10;99.90;;;;;;5040669;28;20052;-58
2023/09/18 01:05:35;;;;;;;1.88;1.42;;;17.10;99.90;;;;;;5064428;28;20040;-58
2023/09/18 01:08:04;;;;;;;6.85;1.70;;;17.10;99.90;;;;;;5054439;28;20056;-58
2023/09/18 01:10:34;;;;;;;9.57;2.10;;;17.10;99.90;;;;;;5064058;28;20045;-59
2023/09/18 01:13:23;;;;;;;11.07;2.55;;;17.10;99.90;;;;;;5051154;28;20052;-59
2023/09/18 01:16:00;;;;;;;4.35;1.48;;;17.10;99.90;;;;;;5046614;28;20503;-59
2023/09/18 01:18:27;;;;;;;7.50;2.22;;;17.10;99.90;;;;;;5033089;28;20047;-58
2023/09/18 01:20:54;;;;;;;11.35;1.88;;;17.10;99.90;;;;;;5057598;28;20257;-60
2023/09/18 01:23:20;;;;;;;8.20;2.20;;;17.10;99.90;;;;;;5056044;28;20044;-57
2023/09/18 01:25:47;;;;;;;9.18;2.13;;;17.10;99.90;;;;;;5056561;28;20124;-59
2023/09/18 01:28:16;;;;;;;7.50;2.10;;;17.10;99.90;;;;;;5052024;28;20045;-59
2023/09/18 01:30:42;;;;;;;6.45;1.98;;;17.10;99.90;;;;;;5059861;28;20507;-60
2023/09/18 01:33:09;;;;;;;13.93;2.75;;;17.10;99.90;;;;;;5058762;28;20080;-59
2023/09/18 01:35:36;;;;;;;8.40;3.03;;;17.10;99.90;;;;;;5041430;28;20118;-60
2023/09/18 01:38:04;;;;;;;8.18;2.25;;;17.20;99.90;;;;;;5045204;28;20045;-59
2023/09/18 01:40:31;;;;;;;8.45;2.00;;;17.10;99.90;;;;;;5039390;28;20548;-59
2023/09/18 01:42:58;;;;;;;7.68;2.03;;;17.10;99.90;;;;;;5056441;28;20052;-60
2023/09/18 01:45:25;;;;;;;8.20;2.35;;;17.10;99.90;;;;;;5032498;28;20759;-58
2023/09/18 01:47:52;;;;;;;10.38;2.35;;;17.10;99.90;;;;;;5038471;28;20048;-56
2023/09/18 01:50:18;;;;;;;7.57;2.10;;;17.00;99.90;;;;;;5043088;28;20045;-59
2023/09/18 01:52:45;;;;;;;6.53;1.88;;;17.00;99.90;;;;;;5055790;28;20087;-60
2023/09/18 01:55:12;;;;;;;7.38;2.15;;;17.10;99.90;;;;;;5059143;28;20099;-59
2023/09/18 01:57:39;;;;;;;6.50;1.90;;;17.00;99.90;;;;;;5061761;28;20119;-59
2023/09/18 02:00:08;;;;;;;9.68;2.20;;;17.00;99.90;;;;;;5049910;28;20045;-56
2023/09/18 02:02:36;;;;;;;6.88;1.90;;;17.00;99.90;;;;;;5063693;28;20040;-59
2023/09/18 02:05:23;;;;;;;5.55;2.30;;;17.10;99.90;;;;;;5055880;28;20495;-58
2023/09/18 02:07:51;;;;;;;7.07;2.10;;;17.10;99.90;;;;;;5042528;28;20487;-58
2023/09/18 02:10:18;;;;;;;6.75;2.10;;;17.00;99.90;;;;;;5057189;28;20049;-58
2023/09/18 02:12:45;;;;;;;5.60;2.17;;;17.10;99.90;;;;;;5052341;28;20299;-58
2023/09/18 02:15:12;;;;;;;5.70;2.20;;;17.00;99.90;;;;;;5049512;28;20110;-59
2023/09/18 02:17:39;;;;;;;7.30;2.28;;;17.00;99.90;;;;;;5060250;28;20454;-59
2023/09/18 02:20:11;;;;;;;5.72;1.70;;;16.80;99.90;;;;;;5037463;28;20048;-57
2023/09/18 02:22:41;;;;;;;6.30;2.75;;;16.70;99.90;;;;;;5053770;28;20170;-58
2023/09/18 02:25:08;;;;;;;8.30;2.05;;;16.70;99.90;;;;;;5061758;28;20132;-58
2023/09/18 02:27:34;;;;;;;3.13;1.65;;;16.60;99.90;;;;;;5059017;28;20064;-58
2023/09/18 02:30:01;;;;;;;5.93;1.60;;;16.60;99.90;;;;;;5061476;28;20044;-58
2023/09/18 02:32:28;;;;;;;5.22;2.72;;;16.70;99.90;;;;;;5058310;28;20056;-58
2023/09/18 02:34:55;;;;;;;4.78;2.15;;;16.70;99.90;;;;;;5051590;28;20475;-60
2023/09/18 02:37:23;;;;;;;5.25;1.80;;;16.70;99.90;;;;;;5059206;28;20134;-57
2023/09/18 02:39:50;;;;;;;5.05;1.98;;;16.80;99.90;;;;;;5053322;28;20094;-59
2023/09/18 02:42:17;;;;;;;4.38;1.60;;;16.80;99.90;;;;;;5053711;28;20097;-58
2023/09/18 02:44:44;;;;;;;8.50;2.67;;;16.80;99.90;;;;;;5051625;28;20090;-58
2023/09/18 02:47:11;;;;;;;3.50;2.03;;;16.80;99.90;;;;;;5064202;28;20048;-59
2023/09/18 02:49:38;;;;;;;9.13;2.03;;;16.80;99.90;;;;;;5060241;28;20051;-59
2023/09/18 02:52:05;;;;;;;6.35;2.42;;;16.70;99.90;;;;;;5051913;28;20053;-59
2023/09/18 02:54:32;;;;;;;3.80;2.00;;;16.70;99.90;;;;;;5064595;28;20093;-58
2023/09/18 02:56:58;;;;;;;8.00;1.90;;;16.70;99.90;;;;;;5057936;28;20049;-57
2023/09/18 02:59:25;;;;;;;5.30;2.30;;;16.60;99.90;;;;;;5063192;28;20098;-58
2023/09/18 03:01:52;;;;;;;4.68;2.05;;;16.60;99.90;;;;;;5049203;28;20534;-59
2023/09/18 03:04:19;;;;;;;5.70;2.42;;;16.60;99.90;;;;;;5062450;28;20040;-58
2023/09/18 03:06:46;;;;;;;8.63;2.38;;;16.60;99.90;;;;;;5031148;28;20053;-58
2023/09/18 03:09:13;;;;;;;8.02;2.60;;;16.60;99.90;;;;;;5060655;28;20053;-58
2023/09/18 03:11:39;;;;;;;5.13;2.60;;;16.60;99.90;;;;;;5050603;28;20076;-57
2023/09/18 03:14:06;;;;;;;8.60;2.78;;;16.50;99.90;;;;;;5055005;28;20053;-58
2023/09/18 03:16:33;;;;;;;8.60;2.35;;;16.50;99.90;;;;;;5047768;28;20539;-59
2023/09/18 03:19:00;;;;;;;10.98;3.15;;;16.50;99.90;;;;;;5059894;28;20051;-58
2023/09/18 03:21:27;;;;;;;8.18;3.00;;;16.50;99.90;;;;;;5057800;28;20255;-59
2023/09/18 03:23:54;;;;;;;12.73;3.38;;;16.40;99.90;;;;;;5034003;28;20049;-58
2023/09/18 03:26:20;;;;;;;12.65;2.88;;;16.50;99.90;;;;;;5056111;28;20080;-58
2023/09/18 03:28:47;;;;;;;8.43;2.53;;;16.40;99.90;;;;;;5059018;28;20049;-58
2023/09/18 03:31:14;;;;;;;7.60;2.35;;;16.40;99.90;;;;;;5061473;28;20086;-58
2023/09/18 03:33:41;;;;;;;8.57;2.70;;;16.40;99.90;;;;;;5058463;28;20045;-58
2023/09/18 03:36:07;;;;;;;7.30;2.80;;;16.40;99.90;;;;;;5066960;28;20041;-58
2023/09/18 03:38:35;;;;;;;13.45;2.75;;;16.40;99.90;;;;;;5058535;28;20053;-60
2023/09/18 03:41:02;;;;;;;7.20;2.05;;;16.30;99.90;;;;;;5065033;28;20115;-57
2023/09/18 03:43:29;;;;;;;7.30;2.85;;;16.30;99.90;;;;;;5055554;28;20057;-57
2023/09/18 03:46:03;;;;;;;6.88;2.67;;;16.30;99.90;;;;;;5065276;28;20103;-59
2023/09/18 03:48:36;;;;;;;13.18;2.95;;;16.30;99.90;;;;;;5060993;28;20041;-59
2023/09/18 03:51:04;;;;;;;13.38;3.17;;;16.30;99.90;;;;;;5049111;28;20057;-58
2023/09/18 03:53:33;;;;;;;7.90;3.03;;;16.30;99.90;;;;;;5052367;28;20229;-58
2023/09/18 03:56:00;;;;;;;14.85;3.25;;;16.20;99.90;;;;;;5055842;28;20569;-59
2023/09/18 03:58:27;;;;;;;12.95;3.00;;;16.30;99.90;;;;;;5048398;28;20098;-58
2023/09/18 04:00:53;;;;;;;14.50;3.03;;;16.30;99.90;;;;;;5057634;28;20106;-60
2023/09/18 04:03:20;;;;;;;7.35;2.80;;;16.30;99.90;;;;;;5039348;28;20048;-57
2023/09/18 04:05:47;;;;;;;14.45;3.42;;;16.30;99.90;;;;;;5033174;28;20056;-58
2023/09/18 04:08:14;;;;;;;15.43;2.85;;;16.30;99.90;;;;;;5055439;28;20049;-60
2023/09/18 04:10:41;;;;;;;10.13;2.88;;;16.30;99.90;;;;;;5042399;28;20079;-59
2023/09/18 04:13:08;;;;;;;15.50;2.60;;;16.30;99.90;;;;;;5056931;28;20520;-58
2023/09/18 04:15:37;;;;;;;14.68;3.55;;;16.30;99.90;;;;;;5058080;28;20246;-57
2023/09/18 04:18:07;;;;;;;12.88;3.05;;;16.30;99.90;;;;;;5057625;28;20057;-59
2023/09/18 04:20:35;;;;;;;10.93;3.33;;;16.30;99.90;;;;;;5056528;28;20044;-57
2023/09/18 04:23:25;;;;;;;12.75;3.35;;;16.30;99.90;;;;;;5059077;28;20049;-57
2023/09/18 04:25:53;;;;;;;10.02;2.38;;;16.30;99.90;;;;;;5046447;28;20059;-57
2023/09/18 04:28:21;;;;;;;16.45;3.00;;;16.40;99.90;;;;;;5057210;28;20053;-57
2023/09/18 04:30:48;;;;;;;12.60;3.13;;;16.30;99.90;;;;;;5061722;28;20278;-57
2023/09/18 04:33:15;;;;;;;12.40;3.22;;;16.40;99.90;;;;;;5053990;28;20056;-57
2023/09/18 04:35:43;;;;;;;12.75;3.03;;;16.40;99.90;;;;;;5031538;28;20047;-57
2023/09/18 04:38:16;;;;;;;9.93;3.70;;;16.30;99.90;;;;;;5064093;28;20055;-57
2023/09/18 04:40:43;;;;;;;16.52;4.10;;;16.40;99.90;;;;;;5056655;28;20076;-57
2023/09/18 04:43:10;;;;;;;7.50;2.65;;;16.40;99.90;;;;;;5063583;28;20053;-57
2023/09/18 04:45:37;;;;;;;11.80;3.05;;;16.40;99.90;;;;;;5033465;28;20053;-58
2023/09/18 04:48:05;;;;;;;12.05;3.45;;;16.40;99.90;;;;;;5046673;28;20080;-57
2023/09/18 04:50:33;;;;;;;12.50;2.85;;;16.40;99.90;;;;;;5059624;28;20128;-58
2023/09/18 04:53:00;;;;;;;19.55;4.15;;;16.40;99.90;;;;;;5062993;28;20049;-57
2023/09/18 04:55:27;;;;;;;12.82;3.42;;;16.40;99.90;;;;;;5061517;28;20492;-58
2023/09/18 04:57:54;;;;;;;7.82;3.42;;;16.40;99.90;;;;;;5061608;28;20080;-57
2023/09/18 05:00:23;;;;;;;15.50;4.88;;;16.40;99.90;;;;;;5062670;28;20037;-57
2023/09/18 05:02:50;;;;;;;11.15;3.95;;;16.40;99.90;;;;;;5061203;28;20401;-56
2023/09/18 05:05:18;;;;;;;8.85;3.65;;;16.40;99.90;;;;;;5055343;28;20040;-57
2023/09/18 05:07:45;;;;;;;11.07;4.50;;;16.40;99.90;;;;;;5057971;28;20140;-56
2023/09/18 05:10:12;;;;;;;12.13;4.13;;;16.40;99.90;;;;;;5054649;28;20041;-58
2023/09/18 05:12:39;;;;;;;15.13;5.15;;;16.50;99.90;;;;;;5057899;28;20125;-57
2023/09/18 05:15:06;;;;;;;10.85;4.00;;;16.50;99.90;;;;;;5062440;28;20130;-56
2023/09/18 05:17:54;;;;;;;13.57;4.25;;;16.50;99.90;;;;;;5058071;28;20056;-57
2023/09/18 05:20:23;;;;;;;12.40;4.93;;;16.50;99.90;;;;;;5062869;28;20106;-57
2023/09/18 05:22:54;;;;;;;9.75;4.63;;;16.50;99.90;;;;;;5057718;28;20053;-58
2023/09/18 05:25:28;;;;;;;12.15;5.10;;;16.60;99.90;;;;;;5057023;28;20553;-57
2023/09/18 05:27:57;;;;;;;13.02;5.03;;;16.60;99.90;;;;;;5055764;28;20110;-57
2023/09/18 05:30:34;;;;;;;12.85;4.28;;;16.60;99.90;;;;;;5063536;28;20499;-56
2023/09/18 05:33:05;;;;;;;10.20;4.18;;;16.60;99.90;;;;;;5052479;28;20149;-58
2023/09/18 05:35:39;;;;;;;14.57;5.20;;;16.70;99.90;;;;;;5051181;28;20475;-59
2023/09/18 05:38:06;;;;;;;15.57;6.65;;;16.70;99.90;;;;;;5058518;28;20044;-55
2023/09/18 05:40:33;;;;;;;15.15;4.25;;;16.80;99.90;;;;;;5032006;28;20098;-58
2023/09/18 05:43:00;;;;;;;11.60;4.72;;;16.80;99.90;;;;;;5057868;28;20049;-56
2023/09/18 05:45:27;;;;;;;11.90;4.38;;;16.80;99.90;;;;;;5039269;28;20041;-58
2023/09/18 05:48:01;;;;;;;14.02;4.57;;;16.80;99.90;;;;;;5059183;28;20041;-54
2023/09/18 05:50:29;;;;;;;16.90;4.50;;;16.80;99.90;;;;;;5034423;28;20207;-57
2023/09/18 05:53:00;;;;;;;14.68;5.25;;;16.80;99.90;;;;;;5054862;28;20041;-60
2023/09/18 05:55:27;;;;;;;15.63;6.07;;;16.80;99.90;;;;;;5051717;28;20056;-57
2023/09/18 05:57:54;;;;;;;15.80;5.38;;;16.80;99.90;;;;;;5049738;28;20073;-57
2023/09/18 06:00:21;;;;;;;15.40;5.32;;;16.80;99.90;;;;;;5056318;28;20053;-56
2023/09/18 06:02:48;;;;;;;16.55;6.78;;;16.80;99.90;;;;;;5036623;28;20052;-55
2023/09/18 06:05:15;;;;;;;11.18;5.50;;;16.80;99.90;;;;;;5041251;28;20470;-58
2023/09/18 06:07:44;;;;;;;12.88;5.40;;;16.80;99.90;;;;;;5060117;28;20047;-57
2023/09/18 06:10:11;;;;;;;13.10;5.78;;;16.80;99.90;;;;;;5056587;28;20061;-60
2023/09/18 06:12:38;;;;;;;16.52;5.70;;;16.80;99.90;;;;;;5045382;28;20044;-56
2023/09/18 06:15:09;;;;;;;10.45;5.10;;;16.80;99.90;;;;;;5040652;28;20049;-55
2023/09/18 06:17:39;;;;;;;13.95;5.18;;;16.80;99.90;;;;;;5057920;28;20041;-56
2023/09/18 06:20:10;;;;;;;9.05;4.85;;;16.80;99.90;;;;;;5050318;28;20099;-55
2023/09/18 06:22:38;;;;;;;10.93;5.38;;;16.80;99.90;;;;;;5061949;28;20044;-56
2023/09/18 06:25:06;;;;;;;10.25;5.35;;;16.80;99.90;;;;;;5056947;28;20052;-57
2023/09/18 06:27:36;;;;;;;11.90;5.85;;;16.80;99.90;;;;;;5054747;28;20048;-54
2023/09/18 06:30:06;;;;;;;9.80;5.25;;;16.80;99.90;;;;;;5029699;28;20132;-56
2023/09/18 06:32:33;;;;;;;15.45;6.70;;;16.80;99.90;;;;;;5041522;28;20095;-55
2023/09/18 06:35:00;;;;;;;15.63;5.28;;;16.90;99.90;;;;;;5046195;28;20053;-56
2023/09/18 06:37:27;;;;;;;8.70;4.63;;;16.90;99.90;;;;;;5038954;28;20499;-58
2023/09/18 06:39:54;;;;;;;11.43;5.38;;;16.90;99.90;;;;;;5051991;28;20495;-58
2023/09/18 06:42:21;;;;;;;10.35;4.90;;;16.90;99.90;;;;;;5053245;28;20507;-57
2023/09/18 06:44:48;;;;;;;12.38;6.05;;;17.00;99.90;;;;;;5049497;28;20052;-57
2023/09/18 06:47:15;;;;;;;12.48;5.85;;;17.00;99.90;;;;;;5062882;28;20080;-56
2023/09/18 06:49:42;;;;;;;11.98;5.60;;;17.00;99.90;;;;;;5056478;28;20446;-57
2023/09/18 06:52:09;;;;;;;14.25;5.88;;;17.10;99.90;;;;;;5061918;28;20045;-55
2023/09/18 06:54:36;;;;;;;9.77;5.32;;;17.10;99.90;;;;;;5062440;28;20090;-56
2023/09/18 06:57:03;;;;;;;13.57;5.15;;;17.10;99.90;;;;;;5063791;28;20095;-56
2023/09/18 06:59:30;;;;;;;9.95;5.57;;;17.20;99.90;;;;;;5065235;28;20095;-55
2023/09/18 07:01:58;;;;;;;13.32;5.68;;;17.20;99.90;;;;;;5064048;28;20151;-55
2023/09/18 07:04:24;;;;;;;19.30;7.95;;;17.20;99.90;;;;;;5054842;28;20051;-58
2023/09/18 07:06:56;;;;;;;14.30;6.47;;;17.30;99.90;;;;;;5063001;28;20119;-57
2023/09/18 07:09:22;;;;;;;12.38;5.40;;;17.40;99.90;;;;;;5052360;28;20115;-55
2023/09/18 07:11:50;;;;;;;11.32;4.63;;;17.30;99.90;;;;;;5039551;28;20120;-57
2023/09/18 07:14:17;;;;;;;8.95;4.68;;;17.40;99.90;;;;;;5051777;28;20052;-56
2023/09/18 07:16:44;;;;;;;11.85;5.07;;;17.40;99.90;;;;;;5036600;28;20183;-54
2023/09/18 07:19:16;;;;;;;17.98;6.28;;;17.50;99.90;;;;;;5060353;28;20045;-60
2023/09/18 07:21:44;;;;;;;9.43;4.90;;;17.60;99.90;;;;;;5036977;28;20049;-58
2023/09/18 07:24:16;;;;;;;7.78;4.20;;;17.60;99.90;;;;;;5052830;28;20056;-58
2023/09/18 07:26:45;;;;;;;5.55;4.22;;;17.70;99.90;;;;;;5037572;28;20057;-56
2023/09/18 07:29:12;;;;;;;11.40;4.47;;;17.70;99.90;;;;;;5044873;28;20057;-54
2023/09/18 07:31:40;;;;;;;11.95;4.40;;;17.70;99.90;;;;;;5062302;28;20100;-58
2023/09/18 07:34:07;;;;;;;11.05;4.28;;;17.70;99.90;;;;;;5049426;28;20080;-57
2023/09/18 07:36:36;;;;;;;8.88;3.72;;;17.70;99.90;;;;;;5054907;28;20045;-57
2023/09/18 07:39:04;;;;;;;8.25;3.15;;;17.70;99.90;;;;;;5036814;28;20487;-58
2023/09/18 07:41:31;;;;;;;14.07;3.58;;;17.70;99.90;;;;;;5064334;28;20048;-57
2023/09/18 07:43:59;;;;;;;9.15;3.28;;;17.70;99.90;;;;;;5065754;28;20045;-58
2023/09/18 07:46:25;;;;;;;14.57;3.38;;;17.60;99.90;;;;;;5063139;28;20037;-58
2023/09/18 07:48:52;;;;;;;19.23;4.40;;;17.60;99.90;;;;;;5068230;28;20122;-57
2023/09/18 07:51:19;;;;;;;13.18;3.33;;;17.60;99.90;;;;;;5060719;28;20049;-54
2023/09/18 07:53:46;;;;;;;10.00;3.47;;;17.70;99.90;;;;;;5067478;28;20094;-57
2023/09/18 07:56:13;;;;;;;6.30;3.15;;;17.70;99.90;;;;;;5061208;28;20088;-58
2023/09/18 07:58:40;;;;;;;8.20;3.78;;;17.80;99.90;;;;;;5051629;28;20084;-58
2023/09/18 08:01:09;;;;;;;11.20;3.05;;;17.80;99.90;;;;;;5061848;28;20043;-58
2023/09/18 08:03:36;;;;;;;11.25;3.40;;;17.90;99.90;;;;;;5050226;28;20049;-58
2023/09/18 08:06:04;;;;;;;6.95;2.97;;;17.90;99.90;;;;;;5062529;28;20094;-57
2023/09/18 08:08:33;;;;;;;11.98;3.90;;;17.90;99.90;;;;;;5050033;28;20527;-54
2023/09/18 08:11:06;;;;;;;5.80;2.90;;;17.90;99.90;;;;;;5050056;28;20099;-54
2023/09/18 08:13:33;;;;;;;10.93;3.10;;;17.80;99.90;;;;;;5049632;28;20183;-54
2023/09/18 08:16:00;;;;;;;8.82;3.90;;;17.80;99.90;;;;;;5047444;28;20045;-54
2023/09/18 08:18:27;;;;;;;6.50;3.30;;;17.80;99.90;;;;;;5065235;28;20052;-57
2023/09/18 08:20:54;;;;;;;8.63;3.20;;;17.80;99.90;;;;;;5057668;28;20143;-57
2023/09/18 08:23:21;;;;;;;12.40;3.13;;;17.90;99.90;;;;;;5065539;28;20079;-57
2023/09/18 08:25:50;;;;;;;11.38;4.05;;;18.00;99.90;;;;;;5058584;28;20075;-55
2023/09/18 08:28:17;;;;;;;8.45;2.63;;;18.00;99.90;;;;;;5050983;28;20339;-57
2023/09/18 08:30:47;;;;;;;9.63;2.70;;;18.10;99.90;;;;;;5063927;28;20053;-59
2023/09/18 08:33:14;;;;;;;8.35;2.65;;;18.10;99.90;;;;;;5064518;28;20461;-57
2023/09/18 08:35:41;;;;;;;5.45;2.22;;;18.20;99.90;;;;;;5065433;28;20053;-56
2023/09/18 08:38:08;;;;;;;9.80;3.22;;;18.20;99.90;;;;;;5057735;28;20045;-53
2023/09/18 08:40:39;;;;;;;6.45;2.80;;;18.20;99.90;;;;;;5051325;28;20047;-56
2023/09/18 08:43:05;;;;;;;15.00;2.75;;;18.20;99.90;;;;;;5042363;28;20041;-54
2023/09/18 08:45:41;;;;;;;7.68;3.42;;;18.20;99.90;;;;;;5062941;28;20106;-53
2023/09/18 08:48:08;;;;;;;8.48;2.85;;;18.30;99.90;;;;;;5048049;28;20428;-56
2023/09/18 08:50:36;;;;;;;10.20;2.83;;;18.30;99.90;;;;;;5050096;28;20483;-56
2023/09/18 08:53:03;;;;;;;5.82;2.42;;;18.30;99.90;;;;;;5043494;28;20079;-55
2023/09/18 08:55:33;;;;;;;9.07;2.80;;;18.30;99.90;;;;;;5050478;28;20051;-58
2023/09/18 08:58:00;;;;;;;11.40;2.65;;;18.30;99.90;;;;;;5043395;28;20053;-55
2023/09/18 09:00:27;;;;;;;8.48;2.90;;;18.50;99.90;;;;;;5015892;28;20045;-56
2023/09/18 09:02:54;;;;;;;14.27;2.97;;;18.50;99.90;;;;;;5056424;28;20052;-55
2023/09/18 09:05:21;;;;;;;9.68;3.70;;;18.70;99.90;;;;;;5069696;28;20158;-56
2023/09/18 09:07:49;;;;;;;13.32;4.47;;;18.80;99.90;;;;;;5038790;28;20127;-57
2023/09/18 09:10:17;;;;;;;7.07;2.55;;;19.00;99.90;;;;;;5069954;28;20238;-57
2023/09/18 09:12:53;;;;;;;16.88;2.90;;;19.30;99.90;;;;;;5066280;28;20048;-57
2023/09/18 09:15:25;;;;;;;4.85;2.13;;;19.50;99.90;;;;;;5030990;28;20049;-56
2023/09/18 09:18:01;;;;;;;5.32;2.20;;;19.50;99.90;;;;;;5031874;28;20050;-56
2023/09/18 09:20:28;;;;;;;8.15;1.75;;;19.50;99.90;;;;;;5031402;28;20045;-57
2023/09/18 09:23:00;;;;;;;9.40;2.28;;;19.70;99.90;;;;;;5048144;28;20135;-57
2023/09/18 09:25:34;;;;;;;5.40;2.08;;;19.90;99.90;;;;;;5050285;28;20045;-57
2023/09/18 09:28:05;;;;;;;7.28;1.75;;;20.00;99.90;;;;;;5064951;28;20276;-56
2023/09/18 09:30:33;;;;;;;4.50;2.03;;;20.20;99.90;;;;;;5051717;28;20053;-57
2023/09/18 09:33:02;;;;;;;3.75;1.42;;;20.40;99.90;;;;;;5056459;28;20311;-56
2023/09/18 09:35:33;;;;;;;16.63;2.88;;;20.50;99.90;;;;;;5035630;28;20147;-57
2023/09/18 09:38:03;;;;;;;12.05;2.17;;;20.50;99.90;;;;;;5055046;28;20105;-56
2023/09/18 09:40:30;;;;;;;9.43;2.50;;;20.30;99.90;;;;;;5036456;28;20059;-56
2023/09/18 09:43:00;;;;;;;8.07;2.03;;;20.10;99.90;;;;;;5052715;28;20044;-56
2023/09/18 09:45:35;;;;;;;7.38;1.90;;;20.10;99.90;;;;;;5056175;28;20071;-57
2023/09/18 09:48:07;;;;;;;4.95;1.98;;;20.10;99.90;;;;;;5035642;28;20045;-58
2023/09/18 09:50:50;;;;;;;4.40;1.15;;;20.00;99.90;;;;;;5056063;28;20052;-56
2023/09/18 09:53:18;;;;;;;6.15;1.48;;;19.90;99.90;;;;;;5037147;28;20037;-56
2023/09/18 09:55:45;;;;;;;7.85;1.50;;;19.80;99.90;;;;;;5060687;28;20142;-56
2023/09/18 09:58:13;;;;;;;6.38;1.58;;;19.70;99.90;;;;;;5065831;28;20152;-55
2023/09/18 10:00:45;;;;;;;8.55;1.85;;;19.70;99.90;;;;;;5053734;28;20066;-57
2023/09/18 10:03:14;;;;;;;4.93;1.70;;;19.70;99.90;;;;;;5034456;28;20135;-58
2023/09/18 10:05:43;;;;;;;10.93;1.60;;;19.60;99.90;;;;;;5046259;28;20037;-57
2023/09/18 10:08:12;;;;;;;5.70;1.45;;;19.50;99.90;;;;;;5066059;28;20061;-57
2023/09/18 10:11:11;;;;;;;4.72;1.48;;;19.40;99.90;;;;;;5057245;28;20101;-57
2023/09/18 10:13:51;;;;;;;3.10;0.98;;;19.30;99.90;;;;;;5049941;28;20075;-57
2023/09/18 10:16:19;;;;;;;4.18;1.50;;;19.30;99.90;;;;;;5043443;28;20051;-57
2023/09/18 10:19:11;;;;;;;7.93;2.20;;;19.20;99.90;;;;;;5066115;28;20491;-56
2023/09/18 10:21:48;;;;;;;6.57;1.85;;;19.10;99.90;;;;;;5060338;28;20074;-57
2023/09/18 10:24:23;;;;;;;8.60;2.00;;;19.20;99.90;;;;;;5045505;28;20140;-56
2023/09/18 10:26:58;;;;;;;3.13;0.90;;;19.10;99.90;;;;;;5054423;28;20454;-56
2023/09/18 10:29:25;;;;;;;7.13;1.58;;;19.10;99.90;;;;;;5051147;28;20495;-55
2023/09/18 10:31:53;;;;;;;4.18;1.23;;;19.00;99.90;;;;;;5056159;28;20072;-57
2023/09/18 10:34:22;;;;;;;8.02;1.40;;;18.90;99.90;;;;;;5048899;28;20073;-58
2023/09/18 10:36:51;;;;;;;2.88;1.17;;;18.70;99.90;;;;;;5058238;28;20068;-57
2023/09/18 10:39:24;;;;;;;2.33;0.80;;;18.80;99.90;;;;;;5049923;28;20041;-57
2023/09/18 10:41:55;;;;;;;3.33;0.90;;;18.80;99.90;;;;;;5056356;28;20048;-56
2023/09/18 10:44:25;;;;;;;3.45;0.80;;;18.90;99.90;;;;;;5064768;28;20060;-56
2023/09/18 10:46:53;;;;;;;1.48;0.90;;;19.00;99.90;;;;;;5058716;28;20064;-57
2023/09/18 10:49:20;;;;;;;2.60;0.77;;;18.90;99.90;;;;;;5030009;28;20048;-56
2023/09/18 10:51:47;;;;;;;1.40;0.70;;;18.80;99.90;;;;;;5055358;28;20055;-57
2023/09/18 10:54:28;;;;;;;1.88;0.98;;;18.70;99.90;;;;;;5029912;28;20087;-57
2023/09/18 10:56:56;;;;;;;4.50;1.20;;;18.50;99.90;;;;;;5039495;28;20468;-55
2023/09/18 10:59:23;;;;;;;1.90;0.80;;;18.40;99.90;;;;;;5049528;28;20533;-57
2023/09/18 11:01:50;;;;;;;3.08;1.20;;;18.40;99.90;;;;;;5036785;28;20045;-59
2023/09/18 11:04:20;;;;;;;8.00;1.73;;;18.50;99.90;;;;;;5067632;28;20128;-58
2023/09/18 11:06:53;;;;;;;5.57;2.08;;;18.70;99.90;;;;;;5061405;28;20144;-57
2023/09/18 11:09:31;;;;;;;4.13;1.25;;;18.80;99.90;;;;;;5047594;28;20041;-53
2023/09/18 11:12:02;;;;;;;6.53;1.58;;;18.80;99.90;;;;;;5059042;28;20048;-56
2023/09/18 11:14:49;;;;;;;4.40;1.13;;;18.80;99.90;;;;;;5047506;28;20102;-57
2023/09/18 11:17:38;;;;;;;4.25;1.10;;;19.00;99.90;;;;;;5053318;28;20068;-56
2023/09/18 11:20:14;;;;;;;9.18;2.53;;;19.10;99.90;;;;;;5066960;28;20438;-56
2023/09/18 11:23:00;;;;;;;7.90;1.50;;;19.10;99.90;;;;;;5054483;28;20048;-57
2023/09/18 11:25:37;;;;;;;3.20;1.55;;;19.20;99.90;;;;;;5066265;28;20053;-56
2023/09/18 11:28:08;;;;;;;7.78;2.95;;;19.20;99.90;;;;;;5037207;28;20484;-57
2023/09/18 11:30:36;;;;;;;5.38;1.50;;;19.20;99.90;;;;;;5012818;28;20057;-56
2023/09/18 11:33:06;;;;;;;6.07;2.30;;;19.20;99.90;;;;;;5058921;28;20128;-55
2023/09/18 11:35:33;;;;;;;8.38;1.85;;;19.30;99.90;;;;;;5047218;28;20123;-56
2023/09/18 11:38:08;;;;;;;7.47;2.08;;;19.20;99.90;;;;;;5035475;28;20072;-58
2023/09/18 11:40:40;;;;;;;8.50;1.70;;;19.20;99.90;;;;;;5070189;28;20060;-58
2023/09/18 11:43:33;;;;;;;4.05;0.90;;;19.20;99.90;;;;;;5063957;28;20113;-57
2023/09/18 11:46:04;;;;;;;5.38;1.40;;;19.10;99.90;;;;;;5050791;28;20049;-58
2023/09/18 11:48:33;;;;;;;7.00;1.83;;;19.10;99.90;;;;;;5056890;28;20503;-57
2023/09/18 11:51:04;;;;;;;2.80;1.00;;;19.00;99.90;;;;;;5053777;28;20071;-56
2023/09/18 11:53:34;;;;;;;3.90;1.80;;;18.80;99.90;;;;;;5063124;28;20510;-56
2023/09/18 11:56:03;;;;;;;6.43;1.33;;;18.90;99.90;;;;;;5049870;28;20069;-56
2023/09/18 11:58:29;;;;;;;7.93;2.80;;;19.00;99.90;;;;;;5060396;28;20495;-61
2023/09/18 12:00:57;;;;;;;2.17;0.70;;;19.00;99.90;;;;;;5052489;28;20060;-54
2023/09/18 12:03:26;;;;;;;4.32;0.80;;;18.90;99.90;;;;;;5047983;28;20433;-55
2023/09/18 12:05:56;;;;;;;1.02;0.60;;;18.90;99.90;;;;;;5051647;28;20048;-57
2023/09/18 12:08:23;;;;;;;2.38;0.85;;;19.00;99.90;;;;;;5041591;28;20147;-56
2023/09/18 12:10:51;;;;;;;1.92;0.85;;;19.20;99.90;;;;;;5052335;28;20107;-56
2023/09/18 12:13:18;;;;;;;1.08;0.68;;;19.40;99.90;;;;;;5057818;28;20048;-55
2023/09/18 12:15:44;;;;;;;5.50;1.25;;;19.30;99.90;;;;;;5037038;28;20420;-57
2023/09/18 12:18:14;;;;;;;2.50;0.82;;;19.40;99.90;;;;;;5047834;28;20114;-54
2023/09/18 12:20:46;;;;;;;2.63;1.00;;;19.50;99.90;;;;;;5063283;28;20059;-57
2023/09/18 12:23:13;;;;;;;3.42;0.90;;;19.60;99.90;;;;;;5048146;28;20044;-57
2023/09/18 12:25:40;;;;;;;2.03;0.90;;;19.60;99.90;;;;;;5061834;28;20063;-56
2023/09/18 12:28:07;;;;;;;9.15;2.03;;;19.50;99.90;;;;;;5039425;28;20098;-56
2023/09/18 12:30:34;;;;;;;5.05;1.10;;;19.50;99.90;;;;;;5041148;28;20454;-56
2023/09/18 12:33:00;;;;;;;6.68;1.27;;;19.50;99.90;;;;;;5067147;28;20044;-57
2023/09/18 12:35:29;;;;;;;4.72;1.02;;;19.80;99.90;;;;;;5043381;28;20466;-55
2023/09/18 12:38:04;;;;;;;2.40;1.15;;;20.10;99.90;;;;;;5017337;28;20102;-55
2023/09/18 12:40:34;;;;;;;3.45;1.50;;;20.10;99.90;;;;;;5040424;28;20124;-53
2023/09/18 12:43:01;;;;;;;2.63;1.27;;;20.10;99.90;;;;;;5049980;28;20098;-56
2023/09/18 12:45:29;;;;;;;3.00;1.20;;;20.10;99.90;;;;;;5039953;28;20071;-56
2023/09/18 12:47:57;;;;;;;5.40;1.45;;;19.90;99.90;;;;;;5046756;28;20045;-56
2023/09/18 12:50:24;;;;;;;6.93;1.30;;;19.80;99.90;;;;;;5052150;28;20049;-54
2023/09/18 12:52:51;;;;;;;3.08;1.38;;;19.70;99.90;;;;;;5049327;28;20127;-55